sensor_id;sensor_type;location;lat;lon;timestamp;P1;durP1;ratioP1;P2;durP2;ratioP2
4766;SDS011;2397;53.576;9.746;2023-12-20T00:01:00;22.17;;;2.70;;
4766;SDS011;2397;53.576;9.746;2023-12-20T00:03:26;9.90;;;2.00;;
4766;SDS011;2397;53.576;9.746;2023-12-20T00:05:53;11.53;;;2.23;;
4766;SDS011;2397;53.576;9.746;2023-12-20T00:08:20;13.60;;;2.63;;
4766;SDS011;2397;53.576;9.746;2023-12-20T00:10:46;12.93;;;2.80;;
4766;SDS011;2397;53.576;9.746;2023-12-20T00:13:13;18.80;;;3.17;;
4766;SDS011;2397;53.576;9.746;2023-12-20T00:15:40;19.70;;;3.00;;
4766;SDS011;2397;53.576;9.746;2023-12-20T00:18:06;9.50;;;2.77;;
4766;SDS011;2397;53.576;9.746;2023-12-20T00:20:33;12.10;;;2.73;;
4766;SDS011;2397;53.576;9.746;2023-12-20T00:23:00;11.97;;;2.60;;
4766;SDS011;2397;53.576;9.746;2023-12-20T00:25:26;21.23;;;3.47;;
4766;SDS011;2397;53.576;9.746;2023-12-20T00:27:53;12.53;;;2.70;;
4766;SDS011;2397;53.576;9.746;2023-12-20T00:30:19;17.07;;;2.47;;
4766;SDS011;2397;53.576;9.746;2023-12-20T00:32:46;16.40;;;2.87;;
4766;SDS011;2397;53.576;9.746;2023-12-20T00:35:13;11.13;;;2.17;;
4766;SDS011;2397;53.576;9.746;2023-12-20T00:37:40;6.33;;;2.53;;
4766;SDS011;2397;53.576;9.746;2023-12-20T00:40:11;13.67;;;2.63;;
4766;SDS011;2397;53.576;9.746;2023-12-20T00:42:37;7.47;;;1.90;;
4766;SDS011;2397;53.576;9.746;2023-12-20T00:45:04;12.47;;;2.40;;
4766;SDS011;2397;53.576;9.746;2023-12-20T00:47:31;9.20;;;3.00;;
4766;SDS011;2397;53.576;9.746;2023-12-20T00:49:58;11.50;;;2.77;;
4766;SDS011;2397;53.576;9.746;2023-12-20T00:52:25;19.70;;;2.90;;
4766;SDS011;2397;53.576;9.746;2023-12-20T00:54:51;14.50;;;2.47;;
4766;SDS011;2397;53.576;9.746;2023-12-20T00:57:18;6.73;;;2.10;;
4766;SDS011;2397;53.576;9.746;2023-12-20T00:59:45;14.20;;;3.50;;
4766;SDS011;2397;53.576;9.746;2023-12-20T01:02:11;18.00;;;2.27;;
4766;SDS011;2397;53.576;9.746;2023-12-20T01:04:38;8.00;;;2.40;;
4766;SDS011;2397;53.576;9.746;2023-12-20T01:07:04;12.37;;;3.90;;
4766;SDS011;2397;53.576;9.746;2023-12-20T01:09:31;10.00;;;2.67;;
4766;SDS011;2397;53.576;9.746;2023-12-20T01:11:58;17.47;;;3.27;;
4766;SDS011;2397;53.576;9.746;2023-12-20T01:14:24;12.53;;;3.20;;
4766;SDS011;2397;53.576;9.746;2023-12-20T01:16:51;7.53;;;2.40;;
4766;SDS011;2397;53.576;9.746;2023-12-20T01:19:17;13.23;;;2.37;;
4766;SDS011;2397;53.576;9.746;2023-12-20T01:21:44;7.63;;;2.50;;
4766;SDS011;2397;53.576;9.746;2023-12-20T01:24:10;13.10;;;3.10;;
4766;SDS011;2397;53.576;9.746;2023-12-20T01:26:37;13.03;;;3.57;;
4766;SDS011;2397;53.576;9.746;2023-12-20T01:29:04;16.37;;;3.20;;
4766;SDS011;2397;53.576;9.746;2023-12-20T01:31:30;12.73;;;3.07;;
4766;SDS011;2397;53.576;9.746;2023-12-20T01:33:57;15.83;;;2.37;;
4766;SDS011;2397;53.576;9.746;2023-12-20T01:36:24;11.63;;;3.07;;
4766;SDS011;2397;53.576;9.746;2023-12-20T01:38:50;9.13;;;2.20;;
4766;SDS011;2397;53.576;9.746;2023-12-20T01:41:17;13.90;;;2.53;;
4766;SDS011;2397;53.576;9.746;2023-12-20T01:43:43;11.73;;;2.40;;
4766;SDS011;2397;53.576;9.746;2023-12-20T01:46:17;7.93;;;2.43;;
4766;SDS011;2397;53.576;9.746;2023-12-20T01:48:44;10.13;;;2.40;;
4766;SDS011;2397;53.576;9.746;2023-12-20T01:51:10;19.47;;;3.67;;
4766;SDS011;2397;53.576;9.746;2023-12-20T01:53:38;23.57;;;3.30;;
4766;SDS011;2397;53.576;9.746;2023-12-20T01:56:06;10.43;;;2.60;;
4766;SDS011;2397;53.576;9.746;2023-12-20T01:58:33;13.20;;;2.47;;
4766;SDS011;2397;53.576;9.746;2023-12-20T02:01:00;27.97;;;3.80;;
4766;SDS011;2397;53.576;9.746;2023-12-20T02:03:27;7.40;;;2.40;;
4766;SDS011;2397;53.576;9.746;2023-12-20T02:05:54;23.50;;;3.43;;
4766;SDS011;2397;53.576;9.746;2023-12-20T02:08:21;4.10;;;2.10;;
4766;SDS011;2397;53.576;9.746;2023-12-20T02:10:47;9.30;;;2.33;;
4766;SDS011;2397;53.576;9.746;2023-12-20T02:13:13;20.10;;;2.63;;
4766;SDS011;2397;53.576;9.746;2023-12-20T02:15:40;12.97;;;2.70;;
4766;SDS011;2397;53.576;9.746;2023-12-20T02:18:09;10.13;;;2.53;;
4766;SDS011;2397;53.576;9.746;2023-12-20T02:20:36;8.97;;;2.70;;
4766;SDS011;2397;53.576;9.746;2023-12-20T02:23:03;7.47;;;2.20;;
4766;SDS011;2397;53.576;9.746;2023-12-20T02:25:29;11.00;;;3.00;;
4766;SDS011;2397;53.576;9.746;2023-12-20T02:27:56;6.90;;;2.17;;
4766;SDS011;2397;53.576;9.746;2023-12-20T02:30:23;14.93;;;2.80;;
4766;SDS011;2397;53.576;9.746;2023-12-20T02:32:49;7.97;;;2.50;;
4766;SDS011;2397;53.576;9.746;2023-12-20T02:35:16;6.87;;;2.70;;
4766;SDS011;2397;53.576;9.746;2023-12-20T02:37:43;11.07;;;2.50;;
4766;SDS011;2397;53.576;9.746;2023-12-20T02:40:09;9.03;;;2.00;;
4766;SDS011;2397;53.576;9.746;2023-12-20T02:42:36;8.17;;;2.27;;
4766;SDS011;2397;53.576;9.746;2023-12-20T02:45:03;5.60;;;2.40;;
4766;SDS011;2397;53.576;9.746;2023-12-20T02:47:30;9.90;;;2.40;;
4766;SDS011;2397;53.576;9.746;2023-12-20T02:49:57;13.77;;;2.83;;
4766;SDS011;2397;53.576;9.746;2023-12-20T02:52:24;8.90;;;2.13;;
4766;SDS011;2397;53.576;9.746;2023-12-20T02:54:51;12.97;;;2.93;;
4766;SDS011;2397;53.576;9.746;2023-12-20T02:57:17;12.17;;;2.47;;
4766;SDS011;2397;53.576;9.746;2023-12-20T02:59:44;7.53;;;2.30;;
4766;SDS011;2397;53.576;9.746;2023-12-20T03:02:10;10.60;;;2.80;;
4766;SDS011;2397;53.576;9.746;2023-12-20T03:04:37;6.27;;;2.10;;
4766;SDS011;2397;53.576;9.746;2023-12-20T03:07:04;12.73;;;3.07;;
4766;SDS011;2397;53.576;9.746;2023-12-20T03:09:31;8.07;;;2.60;;
4766;SDS011;2397;53.576;9.746;2023-12-20T03:12:17;9.80;;;2.40;;
4766;SDS011;2397;53.576;9.746;2023-12-20T03:14:44;6.70;;;2.10;;
4766;SDS011;2397;53.576;9.746;2023-12-20T03:17:10;6.70;;;2.43;;
4766;SDS011;2397;53.576;9.746;2023-12-20T03:19:37;13.33;;;4.33;;
4766;SDS011;2397;53.576;9.746;2023-12-20T03:22:03;12.60;;;2.07;;
4766;SDS011;2397;53.576;9.746;2023-12-20T03:24:30;12.03;;;2.00;;
4766;SDS011;2397;53.576;9.746;2023-12-20T03:26:57;13.87;;;3.30;;
4766;SDS011;2397;53.576;9.746;2023-12-20T03:29:23;8.30;;;2.70;;
4766;SDS011;2397;53.576;9.746;2023-12-20T03:31:50;7.50;;;2.30;;
4766;SDS011;2397;53.576;9.746;2023-12-20T03:34:16;7.97;;;2.33;;
4766;SDS011;2397;53.576;9.746;2023-12-20T03:36:43;11.03;;;2.30;;
4766;SDS011;2397;53.576;9.746;2023-12-20T03:39:10;9.87;;;2.57;;
4766;SDS011;2397;53.576;9.746;2023-12-20T03:41:37;8.53;;;2.67;;
4766;SDS011;2397;53.576;9.746;2023-12-20T03:44:03;11.27;;;2.30;;
4766;SDS011;2397;53.576;9.746;2023-12-20T03:46:30;13.63;;;2.50;;
4766;SDS011;2397;53.576;9.746;2023-12-20T03:48:56;11.40;;;2.07;;
4766;SDS011;2397;53.576;9.746;2023-12-20T03:51:24;17.30;;;2.23;;
4766;SDS011;2397;53.576;9.746;2023-12-20T03:53:50;8.00;;;2.73;;
4766;SDS011;2397;53.576;9.746;2023-12-20T03:56:17;13.90;;;2.30;;
4766;SDS011;2397;53.576;9.746;2023-12-20T03:58:43;13.47;;;2.90;;
4766;SDS011;2397;53.576;9.746;2023-12-20T04:01:10;14.83;;;2.47;;
4766;SDS011;2397;53.576;9.746;2023-12-20T04:03:38;9.90;;;2.80;;
4766;SDS011;2397;53.576;9.746;2023-12-20T04:06:05;5.33;;;2.23;;
4766;SDS011;2397;53.576;9.746;2023-12-20T04:08:32;7.30;;;3.03;;
4766;SDS011;2397;53.576;9.746;2023-12-20T04:10:59;14.20;;;3.20;;
4766;SDS011;2397;53.576;9.746;2023-12-20T04:13:25;11.53;;;2.50;;
4766;SDS011;2397;53.576;9.746;2023-12-20T04:15:52;5.57;;;2.30;;
4766;SDS011;2397;53.576;9.746;2023-12-20T04:18:18;14.47;;;2.73;;
4766;SDS011;2397;53.576;9.746;2023-12-20T04:20:45;8.20;;;2.50;;
4766;SDS011;2397;53.576;9.746;2023-12-20T04:23:12;13.27;;;2.87;;
4766;SDS011;2397;53.576;9.746;2023-12-20T04:25:38;11.63;;;3.43;;
4766;SDS011;2397;53.576;9.746;2023-12-20T04:28:05;5.47;;;2.13;;
4766;SDS011;2397;53.576;9.746;2023-12-20T04:30:31;8.90;;;2.93;;
4766;SDS011;2397;53.576;9.746;2023-12-20T04:32:58;7.77;;;2.53;;
4766;SDS011;2397;53.576;9.746;2023-12-20T04:35:24;4.23;;;1.90;;
4766;SDS011;2397;53.576;9.746;2023-12-20T04:37:51;17.00;;;4.47;;
4766;SDS011;2397;53.576;9.746;2023-12-20T04:40:18;7.50;;;2.30;;
4766;SDS011;2397;53.576;9.746;2023-12-20T04:42:44;9.47;;;2.27;;
4766;SDS011;2397;53.576;9.746;2023-12-20T04:45:11;13.03;;;2.37;;
4766;SDS011;2397;53.576;9.746;2023-12-20T04:47:39;4.23;;;2.60;;
4766;SDS011;2397;53.576;9.746;2023-12-20T04:50:08;11.37;;;3.07;;
4766;SDS011;2397;53.576;9.746;2023-12-20T04:52:36;6.73;;;2.57;;
4766;SDS011;2397;53.576;9.746;2023-12-20T04:55:02;16.80;;;2.80;;
4766;SDS011;2397;53.576;9.746;2023-12-20T04:57:29;10.23;;;2.97;;
4766;SDS011;2397;53.576;9.746;2023-12-20T04:59:56;13.33;;;3.33;;
4766;SDS011;2397;53.576;9.746;2023-12-20T05:02:22;12.27;;;2.30;;
4766;SDS011;2397;53.576;9.746;2023-12-20T05:04:49;15.13;;;3.07;;
4766;SDS011;2397;53.576;9.746;2023-12-20T05:07:19;6.23;;;2.13;;
4766;SDS011;2397;53.576;9.746;2023-12-20T05:09:47;7.00;;;2.20;;
4766;SDS011;2397;53.576;9.746;2023-12-20T05:12:13;16.83;;;2.80;;
4766;SDS011;2397;53.576;9.746;2023-12-20T05:14:40;9.97;;;2.90;;
4766;SDS011;2397;53.576;9.746;2023-12-20T05:17:06;15.53;;;3.03;;
4766;SDS011;2397;53.576;9.746;2023-12-20T05:19:33;12.97;;;3.03;;
4766;SDS011;2397;53.576;9.746;2023-12-20T05:22:01;15.57;;;3.40;;
4766;SDS011;2397;53.576;9.746;2023-12-20T05:24:28;7.50;;;2.33;;
4766;SDS011;2397;53.576;9.746;2023-12-20T05:26:55;14.93;;;3.00;;
4766;SDS011;2397;53.576;9.746;2023-12-20T05:29:21;15.40;;;3.23;;
4766;SDS011;2397;53.576;9.746;2023-12-20T05:31:48;15.57;;;3.60;;
4766;SDS011;2397;53.576;9.746;2023-12-20T05:34:14;12.07;;;2.80;;
4766;SDS011;2397;53.576;9.746;2023-12-20T05:36:41;19.87;;;3.70;;
4766;SDS011;2397;53.576;9.746;2023-12-20T05:39:08;6.13;;;2.40;;
4766;SDS011;2397;53.576;9.746;2023-12-20T05:41:34;8.27;;;3.13;;
4766;SDS011;2397;53.576;9.746;2023-12-20T05:44:01;13.70;;;3.23;;
4766;SDS011;2397;53.576;9.746;2023-12-20T05:46:28;8.00;;;2.37;;
4766;SDS011;2397;53.576;9.746;2023-12-20T05:48:54;9.17;;;2.40;;
4766;SDS011;2397;53.576;9.746;2023-12-20T05:51:21;11.80;;;2.43;;
4766;SDS011;2397;53.576;9.746;2023-12-20T05:53:47;12.83;;;3.30;;
4766;SDS011;2397;53.576;9.746;2023-12-20T05:56:16;10.43;;;2.70;;
4766;SDS011;2397;53.576;9.746;2023-12-20T05:58:42;9.07;;;2.60;;
4766;SDS011;2397;53.576;9.746;2023-12-20T06:01:10;16.37;;;3.70;;
4766;SDS011;2397;53.576;9.746;2023-12-20T06:03:36;13.10;;;3.10;;
4766;SDS011;2397;53.576;9.746;2023-12-20T06:06:06;10.23;;;3.03;;
4766;SDS011;2397;53.576;9.746;2023-12-20T06:08:42;5.60;;;2.40;;
4766;SDS011;2397;53.576;9.746;2023-12-20T06:11:09;22.40;;;3.03;;
4766;SDS011;2397;53.576;9.746;2023-12-20T06:13:36;15.07;;;3.13;;
4766;SDS011;2397;53.576;9.746;2023-12-20T06:16:04;13.37;;;3.10;;
4766;SDS011;2397;53.576;9.746;2023-12-20T06:18:32;15.60;;;3.40;;
4766;SDS011;2397;53.576;9.746;2023-12-20T06:20:59;18.37;;;3.43;;
4766;SDS011;2397;53.576;9.746;2023-12-20T06:23:25;7.13;;;3.10;;
4766;SDS011;2397;53.576;9.746;2023-12-20T06:25:53;12.93;;;3.43;;
4766;SDS011;2397;53.576;9.746;2023-12-20T06:28:20;10.77;;;2.57;;
4766;SDS011;2397;53.576;9.746;2023-12-20T06:30:46;13.23;;;2.80;;
4766;SDS011;2397;53.576;9.746;2023-12-20T06:33:15;14.10;;;3.20;;
4766;SDS011;2397;53.576;9.746;2023-12-20T06:35:42;7.93;;;2.67;;
4766;SDS011;2397;53.576;9.746;2023-12-20T06:38:09;13.30;;;3.47;;
4766;SDS011;2397;53.576;9.746;2023-12-20T06:40:35;17.03;;;3.73;;
4766;SDS011;2397;53.576;9.746;2023-12-20T06:43:02;17.90;;;3.33;;
4766;SDS011;2397;53.576;9.746;2023-12-20T06:45:41;5.80;;;2.80;;
4766;SDS011;2397;53.576;9.746;2023-12-20T06:48:08;12.50;;;2.30;;
4766;SDS011;2397;53.576;9.746;2023-12-20T06:50:37;8.80;;;2.50;;
4766;SDS011;2397;53.576;9.746;2023-12-20T06:53:06;16.17;;;3.00;;
4766;SDS011;2397;53.576;9.746;2023-12-20T06:55:34;14.27;;;3.37;;
4766;SDS011;2397;53.576;9.746;2023-12-20T06:58:03;7.93;;;2.47;;
4766;SDS011;2397;53.576;9.746;2023-12-20T07:00:30;16.47;;;3.10;;
4766;SDS011;2397;53.576;9.746;2023-12-20T07:02:57;5.47;;;2.80;;
4766;SDS011;2397;53.576;9.746;2023-12-20T07:05:24;11.23;;;2.70;;
4766;SDS011;2397;53.576;9.746;2023-12-20T07:07:50;14.77;;;2.70;;
4766;SDS011;2397;53.576;9.746;2023-12-20T07:10:17;6.80;;;2.30;;
4766;SDS011;2397;53.576;9.746;2023-12-20T07:12:44;7.93;;;2.70;;
4766;SDS011;2397;53.576;9.746;2023-12-20T07:15:10;13.43;;;3.23;;
4766;SDS011;2397;53.576;9.746;2023-12-20T07:17:37;10.00;;;2.70;;
4766;SDS011;2397;53.576;9.746;2023-12-20T07:20:04;19.97;;;3.13;;
4766;SDS011;2397;53.576;9.746;2023-12-20T07:22:33;23.50;;;4.27;;
4766;SDS011;2397;53.576;9.746;2023-12-20T07:25:00;14.63;;;4.27;;
4766;SDS011;2397;53.576;9.746;2023-12-20T07:27:27;14.37;;;2.90;;
4766;SDS011;2397;53.576;9.746;2023-12-20T07:29:54;21.03;;;4.10;;
4766;SDS011;2397;53.576;9.746;2023-12-20T07:32:20;11.60;;;2.80;;
4766;SDS011;2397;53.576;9.746;2023-12-20T07:34:47;10.47;;;2.80;;
4766;SDS011;2397;53.576;9.746;2023-12-20T07:37:13;16.67;;;3.30;;
4766;SDS011;2397;53.576;9.746;2023-12-20T07:39:40;9.10;;;2.87;;
4766;SDS011;2397;53.576;9.746;2023-12-20T07:42:07;17.77;;;4.33;;
4766;SDS011;2397;53.576;9.746;2023-12-20T07:44:35;11.97;;;3.37;;
4766;SDS011;2397;53.576;9.746;2023-12-20T07:47:04;16.40;;;3.13;;
4766;SDS011;2397;53.576;9.746;2023-12-20T07:49:31;14.43;;;4.20;;
4766;SDS011;2397;53.576;9.746;2023-12-20T07:51:58;7.57;;;2.80;;
4766;SDS011;2397;53.576;9.746;2023-12-20T07:54:25;15.53;;;3.77;;
4766;SDS011;2397;53.576;9.746;2023-12-20T07:56:51;11.73;;;3.43;;
4766;SDS011;2397;53.576;9.746;2023-12-20T07:59:18;15.20;;;3.70;;
4766;SDS011;2397;53.576;9.746;2023-12-20T08:01:57;15.97;;;3.73;;
4766;SDS011;2397;53.576;9.746;2023-12-20T08:04:24;13.60;;;3.30;;
4766;SDS011;2397;53.576;9.746;2023-12-20T08:06:51;17.10;;;3.10;;
4766;SDS011;2397;53.576;9.746;2023-12-20T08:09:18;13.37;;;3.20;;
4766;SDS011;2397;53.576;9.746;2023-12-20T08:11:46;9.13;;;3.50;;
4766;SDS011;2397;53.576;9.746;2023-12-20T08:14:13;12.37;;;2.77;;
4766;SDS011;2397;53.576;9.746;2023-12-20T08:16:43;17.63;;;3.13;;
4766;SDS011;2397;53.576;9.746;2023-12-20T08:19:09;6.47;;;2.60;;
4766;SDS011;2397;53.576;9.746;2023-12-20T08:21:36;10.43;;;2.93;;
4766;SDS011;2397;53.576;9.746;2023-12-20T08:24:04;17.27;;;3.10;;
4766;SDS011;2397;53.576;9.746;2023-12-20T08:26:32;14.57;;;3.37;;
4766;SDS011;2397;53.576;9.746;2023-12-20T08:28:59;19.43;;;4.20;;
4766;SDS011;2397;53.576;9.746;2023-12-20T08:31:27;14.27;;;2.53;;
4766;SDS011;2397;53.576;9.746;2023-12-20T08:33:55;17.90;;;3.60;;
4766;SDS011;2397;53.576;9.746;2023-12-20T08:36:22;12.77;;;3.13;;
4766;SDS011;2397;53.576;9.746;2023-12-20T08:38:50;13.53;;;3.60;;
4766;SDS011;2397;53.576;9.746;2023-12-20T08:41:17;8.93;;;4.27;;
4766;SDS011;2397;53.576;9.746;2023-12-20T08:43:44;14.87;;;3.30;;
4766;SDS011;2397;53.576;9.746;2023-12-20T08:46:10;16.20;;;3.90;;
4766;SDS011;2397;53.576;9.746;2023-12-20T08:48:38;16.03;;;3.37;;
4766;SDS011;2397;53.576;9.746;2023-12-20T08:51:05;11.60;;;3.10;;
4766;SDS011;2397;53.576;9.746;2023-12-20T08:53:35;6.70;;;2.73;;
4766;SDS011;2397;53.576;9.746;2023-12-20T08:56:02;7.60;;;2.60;;
4766;SDS011;2397;53.576;9.746;2023-12-20T08:58:29;10.70;;;2.67;;
4766;SDS011;2397;53.576;9.746;2023-12-20T09:00:56;12.17;;;2.40;;
4766;SDS011;2397;53.576;9.746;2023-12-20T09:03:24;11.97;;;3.30;;
4766;SDS011;2397;53.576;9.746;2023-12-20T09:05:50;14.00;;;2.60;;
4766;SDS011;2397;53.576;9.746;2023-12-20T09:08:18;8.77;;;2.27;;
4766;SDS011;2397;53.576;9.746;2023-12-20T09:10:45;8.40;;;3.10;;
4766;SDS011;2397;53.576;9.746;2023-12-20T09:13:12;10.13;;;2.43;;
4766;SDS011;2397;53.576;9.746;2023-12-20T09:15:39;3.33;;;1.70;;
4766;SDS011;2397;53.576;9.746;2023-12-20T09:18:09;7.90;;;2.07;;
4766;SDS011;2397;53.576;9.746;2023-12-20T09:20:36;5.47;;;2.17;;
4766;SDS011;2397;53.576;9.746;2023-12-20T09:23:07;3.10;;;1.80;;
4766;SDS011;2397;53.576;9.746;2023-12-20T09:25:34;4.00;;;1.90;;
4766;SDS011;2397;53.576;9.746;2023-12-20T09:28:00;6.90;;;1.73;;
4766;SDS011;2397;53.576;9.746;2023-12-20T09:30:27;3.67;;;1.83;;
4766;SDS011;2397;53.576;9.746;2023-12-20T09:32:54;2.60;;;1.33;;
4766;SDS011;2397;53.576;9.746;2023-12-20T09:35:21;3.47;;;1.10;;
4766;SDS011;2397;53.576;9.746;2023-12-20T09:37:49;3.37;;;1.47;;
4766;SDS011;2397;53.576;9.746;2023-12-20T09:40:17;1.10;;;1.00;;
4766;SDS011;2397;53.576;9.746;2023-12-20T09:42:57;1.17;;;1.00;;
4766;SDS011;2397;53.576;9.746;2023-12-20T09:45:29;1.30;;;1.20;;
4766;SDS011;2397;53.576;9.746;2023-12-20T09:47:57;2.87;;;1.00;;
4766;SDS011;2397;53.576;9.746;2023-12-20T09:50:24;0.90;;;0.80;;
4766;SDS011;2397;53.576;9.746;2023-12-20T09:52:51;1.00;;;0.90;;
4766;SDS011;2397;53.576;9.746;2023-12-20T09:55:19;4.10;;;1.23;;
4766;SDS011;2397;53.576;9.746;2023-12-20T09:57:47;1.77;;;1.00;;
4766;SDS011;2397;53.576;9.746;2023-12-20T10:00:15;1.23;;;1.00;;
4766;SDS011;2397;53.576;9.746;2023-12-20T10:02:50;6.73;;;1.53;;
4766;SDS011;2397;53.576;9.746;2023-12-20T10:05:27;2.33;;;1.10;;
4766;SDS011;2397;53.576;9.746;2023-12-20T10:07:55;1.53;;;0.90;;
4766;SDS011;2397;53.576;9.746;2023-12-20T10:10:23;2.20;;;1.27;;
4766;SDS011;2397;53.576;9.746;2023-12-20T10:15:31;1.67;;;1.07;;
4766;SDS011;2397;53.576;9.746;2023-12-20T10:17:59;1.97;;;1.47;;
4766;SDS011;2397;53.576;9.746;2023-12-20T10:20:28;1.20;;;0.97;;
4766;SDS011;2397;53.576;9.746;2023-12-20T10:22:56;2.93;;;1.10;;
4766;SDS011;2397;53.576;9.746;2023-12-20T10:25:23;8.27;;;0.97;;
4766;SDS011;2397;53.576;9.746;2023-12-20T10:28:08;2.00;;;1.20;;
4766;SDS011;2397;53.576;9.746;2023-12-20T10:30:35;4.10;;;1.80;;
4766;SDS011;2397;53.576;9.746;2023-12-20T10:33:02;2.40;;;1.17;;
4766;SDS011;2397;53.576;9.746;2023-12-20T10:35:29;7.13;;;1.30;;
4766;SDS011;2397;53.576;9.746;2023-12-20T10:37:56;3.53;;;1.50;;
4766;SDS011;2397;53.576;9.746;2023-12-20T10:40:22;7.13;;;1.60;;
4766;SDS011;2397;53.576;9.746;2023-12-20T10:42:52;3.47;;;1.23;;
4766;SDS011;2397;53.576;9.746;2023-12-20T10:45:19;4.80;;;1.43;;
4766;SDS011;2397;53.576;9.746;2023-12-20T10:47:46;4.00;;;1.27;;
4766;SDS011;2397;53.576;9.746;2023-12-20T10:50:13;3.00;;;1.77;;
4766;SDS011;2397;53.576;9.746;2023-12-20T10:52:41;5.13;;;1.80;;
4766;SDS011;2397;53.576;9.746;2023-12-20T10:55:10;5.23;;;1.67;;
4766;SDS011;2397;53.576;9.746;2023-12-20T10:57:37;10.07;;;3.10;;
4766;SDS011;2397;53.576;9.746;2023-12-20T11:00:05;6.90;;;1.80;;
4766;SDS011;2397;53.576;9.746;2023-12-20T11:02:39;1.50;;;1.33;;
4766;SDS011;2397;53.576;9.746;2023-12-20T11:05:08;4.00;;;1.83;;
4766;SDS011;2397;53.576;9.746;2023-12-20T11:07:47;8.00;;;1.63;;
4766;SDS011;2397;53.576;9.746;2023-12-20T11:10:18;14.30;;;2.27;;
4766;SDS011;2397;53.576;9.746;2023-12-20T11:12:53;3.80;;;1.47;;
4766;SDS011;2397;53.576;9.746;2023-12-20T11:15:25;5.27;;;1.47;;
4766;SDS011;2397;53.576;9.746;2023-12-20T11:17:56;6.40;;;1.87;;
4766;SDS011;2397;53.576;9.746;2023-12-20T11:20:34;5.03;;;2.97;;
4766;SDS011;2397;53.576;9.746;2023-12-20T11:23:02;13.73;;;2.60;;
4766;SDS011;2397;53.576;9.746;2023-12-20T11:25:29;4.70;;;1.80;;
4766;SDS011;2397;53.576;9.746;2023-12-20T11:28:09;8.10;;;1.93;;
4766;SDS011;2397;53.576;9.746;2023-12-20T11:30:45;3.60;;;2.00;;
4766;SDS011;2397;53.576;9.746;2023-12-20T11:33:14;9.30;;;2.70;;
4766;SDS011;2397;53.576;9.746;2023-12-20T11:35:45;9.33;;;2.70;;
4766;SDS011;2397;53.576;9.746;2023-12-20T11:38:12;13.40;;;2.07;;
4766;SDS011;2397;53.576;9.746;2023-12-20T11:40:43;16.37;;;2.13;;
4766;SDS011;2397;53.576;9.746;2023-12-20T11:43:10;5.73;;;2.50;;
4766;SDS011;2397;53.576;9.746;2023-12-20T11:45:37;10.07;;;2.90;;
4766;SDS011;2397;53.576;9.746;2023-12-20T11:48:15;13.10;;;3.13;;
4766;SDS011;2397;53.576;9.746;2023-12-20T11:50:41;5.63;;;2.10;;
4766;SDS011;2397;53.576;9.746;2023-12-20T11:53:08;11.80;;;3.67;;
4766;SDS011;2397;53.576;9.746;2023-12-20T11:55:36;9.30;;;2.70;;
4766;SDS011;2397;53.576;9.746;2023-12-20T11:58:03;19.97;;;3.53;;
4766;SDS011;2397;53.576;9.746;2023-12-20T12:00:30;6.57;;;2.67;;
4766;SDS011;2397;53.576;9.746;2023-12-20T12:02:57;8.03;;;2.90;;
4766;SDS011;2397;53.576;9.746;2023-12-20T12:05:24;18.20;;;2.40;;
4766;SDS011;2397;53.576;9.746;2023-12-20T12:07:52;11.70;;;2.50;;
4766;SDS011;2397;53.576;9.746;2023-12-20T12:10:19;7.17;;;2.50;;
4766;SDS011;2397;53.576;9.746;2023-12-20T12:12:46;7.10;;;2.13;;
4766;SDS011;2397;53.576;9.746;2023-12-20T12:15:14;8.90;;;2.13;;
4766;SDS011;2397;53.576;9.746;2023-12-20T12:17:40;11.40;;;3.30;;
4766;SDS011;2397;53.576;9.746;2023-12-20T12:20:07;16.30;;;2.77;;
4766;SDS011;2397;53.576;9.746;2023-12-20T12:22:36;14.60;;;2.70;;
4766;SDS011;2397;53.576;9.746;2023-12-20T12:25:09;5.57;;;2.37;;
4766;SDS011;2397;53.576;9.746;2023-12-20T12:27:41;14.67;;;2.90;;
4766;SDS011;2397;53.576;9.746;2023-12-20T12:30:08;7.40;;;2.93;;
4766;SDS011;2397;53.576;9.746;2023-12-20T12:32:36;13.97;;;2.50;;
4766;SDS011;2397;53.576;9.746;2023-12-20T12:35:04;8.43;;;2.27;;
4766;SDS011;2397;53.576;9.746;2023-12-20T12:37:36;6.60;;;2.27;;
4766;SDS011;2397;53.576;9.746;2023-12-20T12:40:05;14.53;;;2.60;;
4766;SDS011;2397;53.576;9.746;2023-12-20T12:42:33;10.30;;;2.07;;
4766;SDS011;2397;53.576;9.746;2023-12-20T12:45:00;9.07;;;2.80;;
4766;SDS011;2397;53.576;9.746;2023-12-20T12:47:27;6.93;;;2.10;;
4766;SDS011;2397;53.576;9.746;2023-12-20T12:49:54;16.30;;;2.47;;
4766;SDS011;2397;53.576;9.746;2023-12-20T12:52:20;8.23;;;2.03;;
4766;SDS011;2397;53.576;9.746;2023-12-20T12:54:47;16.60;;;3.30;;
4766;SDS011;2397;53.576;9.746;2023-12-20T12:57:14;12.73;;;2.23;;
4766;SDS011;2397;53.576;9.746;2023-12-20T12:59:42;11.30;;;3.27;;
4766;SDS011;2397;53.576;9.746;2023-12-20T13:02:10;16.47;;;3.30;;
4766;SDS011;2397;53.576;9.746;2023-12-20T13:04:36;8.13;;;3.33;;
4766;SDS011;2397;53.576;9.746;2023-12-20T13:07:03;12.43;;;2.50;;
4766;SDS011;2397;53.576;9.746;2023-12-20T13:09:30;13.80;;;2.70;;
4766;SDS011;2397;53.576;9.746;2023-12-20T13:11:57;15.17;;;4.20;;
4766;SDS011;2397;53.576;9.746;2023-12-20T13:14:23;13.73;;;3.40;;
4766;SDS011;2397;53.576;9.746;2023-12-20T13:16:50;16.33;;;3.80;;
4766;SDS011;2397;53.576;9.746;2023-12-20T13:19:17;16.47;;;3.13;;
4766;SDS011;2397;53.576;9.746;2023-12-20T13:21:43;20.13;;;4.37;;
4766;SDS011;2397;53.576;9.746;2023-12-20T13:24:10;7.73;;;3.67;;
4766;SDS011;2397;53.576;9.746;2023-12-20T13:26:37;21.30;;;3.50;;
4766;SDS011;2397;53.576;9.746;2023-12-20T13:29:03;21.17;;;2.87;;
4766;SDS011;2397;53.576;9.746;2023-12-20T13:31:30;16.43;;;3.90;;
4766;SDS011;2397;53.576;9.746;2023-12-20T13:33:57;13.23;;;3.40;;
4766;SDS011;2397;53.576;9.746;2023-12-20T13:36:24;17.33;;;3.20;;
4766;SDS011;2397;53.576;9.746;2023-12-20T13:38:50;19.93;;;3.50;;
4766;SDS011;2397;53.576;9.746;2023-12-20T13:41:17;12.03;;;3.20;;
4766;SDS011;2397;53.576;9.746;2023-12-20T13:43:43;13.23;;;3.50;;
4766;SDS011;2397;53.576;9.746;2023-12-20T13:46:10;9.40;;;2.77;;
4766;SDS011;2397;53.576;9.746;2023-12-20T13:48:37;16.70;;;4.63;;
4766;SDS011;2397;53.576;9.746;2023-12-20T13:51:04;21.57;;;3.50;;
4766;SDS011;2397;53.576;9.746;2023-12-20T13:53:30;17.57;;;4.40;;
4766;SDS011;2397;53.576;9.746;2023-12-20T13:55:57;12.30;;;4.50;;
4766;SDS011;2397;53.576;9.746;2023-12-20T13:58:24;18.17;;;4.17;;
4766;SDS011;2397;53.576;9.746;2023-12-20T14:00:50;18.03;;;4.67;;
4766;SDS011;2397;53.576;9.746;2023-12-20T14:03:17;12.30;;;4.23;;
4766;SDS011;2397;53.576;9.746;2023-12-20T14:05:44;34.87;;;5.70;;
4766;SDS011;2397;53.576;9.746;2023-12-20T14:08:11;26.40;;;7.27;;
4766;SDS011;2397;53.576;9.746;2023-12-20T14:10:38;15.20;;;3.50;;
4766;SDS011;2397;53.576;9.746;2023-12-20T14:13:04;17.90;;;4.27;;
4766;SDS011;2397;53.576;9.746;2023-12-20T14:15:31;17.20;;;4.83;;
4766;SDS011;2397;53.576;9.746;2023-12-20T14:18:06;14.17;;;3.33;;
4766;SDS011;2397;53.576;9.746;2023-12-20T14:20:34;13.57;;;3.90;;
4766;SDS011;2397;53.576;9.746;2023-12-20T14:23:01;23.20;;;4.93;;
4766;SDS011;2397;53.576;9.746;2023-12-20T14:25:28;8.50;;;3.43;;
4766;SDS011;2397;53.576;9.746;2023-12-20T14:28:01;21.23;;;4.20;;
4766;SDS011;2397;53.576;9.746;2023-12-20T14:30:27;18.63;;;4.50;;
4766;SDS011;2397;53.576;9.746;2023-12-20T14:32:54;14.90;;;4.57;;
4766;SDS011;2397;53.576;9.746;2023-12-20T14:35:20;17.30;;;4.83;;
4766;SDS011;2397;53.576;9.746;2023-12-20T14:37:47;12.93;;;4.43;;
4766;SDS011;2397;53.576;9.746;2023-12-20T14:40:15;17.27;;;4.70;;
4766;SDS011;2397;53.576;9.746;2023-12-20T14:42:43;13.23;;;3.47;;
4766;SDS011;2397;53.576;9.746;2023-12-20T14:45:10;10.07;;;3.30;;
4766;SDS011;2397;53.576;9.746;2023-12-20T14:47:37;11.60;;;3.60;;
4766;SDS011;2397;53.576;9.746;2023-12-20T14:50:03;12.10;;;4.17;;
4766;SDS011;2397;53.576;9.746;2023-12-20T14:52:32;19.03;;;3.87;;
4766;SDS011;2397;53.576;9.746;2023-12-20T14:55:00;17.27;;;4.03;;
4766;SDS011;2397;53.576;9.746;2023-12-20T14:57:29;15.70;;;3.40;;
4766;SDS011;2397;53.576;9.746;2023-12-20T14:59:56;10.40;;;3.83;;
4766;SDS011;2397;53.576;9.746;2023-12-20T15:02:22;12.33;;;3.67;;
4766;SDS011;2397;53.576;9.746;2023-12-20T15:04:49;13.70;;;4.33;;
4766;SDS011;2397;53.576;9.746;2023-12-20T15:07:17;13.73;;;4.33;;
4766;SDS011;2397;53.576;9.746;2023-12-20T15:09:43;17.93;;;3.63;;
4766;SDS011;2397;53.576;9.746;2023-12-20T15:12:12;14.03;;;3.87;;